createdAt,value
2022-08-09T00:01:14.475Z,78.57
2022-08-09T00:04:24.999Z,78.41
2022-08-09T00:07:10.805Z,78.38
2022-08-09T00:09:52.480Z,78.50
2022-08-09T00:12:41.182Z,79.02
2022-08-09T00:15:35.133Z,78.73
2022-08-09T00:18:34.740Z,78.95
2022-08-09T00:21:17.742Z,78.84
2022-08-09T00:24:06.431Z,78.59
2022-08-09T00:26:53.463Z,79.06
2022-08-09T00:30:24.942Z,78.50
2022-08-09T00:32:46.085Z,78.89
2022-08-09T00:35:43.515Z,78.62
2022-08-09T00:38:25.757Z,79.00
2022-08-09T00:44:14.815Z,79.20
2022-08-09T00:44:26.224Z,78.81
2022-08-09T00:47:16.465Z,79.21
2022-08-09T00:49:58.634Z,79.21
2022-08-09T00:52:47.192Z,78.74
2022-08-09T00:56:03.673Z,78.97
2022-08-09T00:58:42.172Z,78.78
2022-08-09T01:01:48.501Z,78.70
2022-08-09T01:05:14.126Z,78.64
2022-08-09T01:08:05.328Z,78.62
2022-08-09T01:11:10.664Z,78.68
2022-08-09T01:14:15.169Z,78.22
2022-08-09T01:17:12.531Z,78.19
2022-08-09T01:20:07.423Z,78.48
2022-08-09T01:24:03.328Z,78.14
2022-08-09T01:26:39.197Z,77.75
2022-08-09T01:29:41.151Z,77.49
2022-08-09T01:32:46.029Z,76.69
2022-08-09T01:35:54.421Z,76.56
2022-08-09T01:38:44.410Z,76.44
2022-08-09T01:41:53.760Z,76.76
2022-08-09T01:44:46.169Z,75.43
2022-08-09T01:47:44.657Z,75.03
2022-08-09T01:50:37.169Z,75.66
2022-08-09T01:53:41.015Z,74.76
2022-08-09T01:56:31.509Z,74.08
2022-08-09T01:59:17.189Z,72.47
2022-08-09T02:02:07.472Z,73.58
2022-08-09T02:04:52.423Z,72.94
2022-08-09T02:08:38.673Z,72.52
2022-08-09T02:10:53.190Z,71.82
2022-08-09T02:13:44.318Z,70.58
2022-08-09T02:17:15.127Z,69.27
2022-08-09T02:19:57.589Z,68.42
2022-08-09T02:22:59.153Z,67.14
2022-08-09T02:25:55.957Z,67.08
2022-08-09T02:28:48.411Z,65.57
2022-08-09T02:31:38.429Z,65.65
2022-08-09T02:34:40.193Z,65.17
2022-08-09T02:37:31.899Z,64.79
2022-08-09T02:40:31.266Z,61.80
2022-08-09T02:43:21.419Z,62.01
2022-08-09T02:46:20.037Z,62.13
2022-08-09T02:49:20.109Z,60.38
2022-08-09T02:52:25.187Z,64.23
2022-08-09T02:55:21.498Z,64.00
2022-08-09T02:58:35.336Z,62.97
2022-08-09T03:01:21.921Z,62.74
2022-08-09T03:04:20.458Z,63.53
2022-08-09T03:07:17.392Z,63.13
2022-08-09T03:10:07.442Z,64.80
2022-08-09T03:12:58.310Z,64.30
2022-08-09T03:16:06.703Z,64.67
2022-08-09T03:18:53.037Z,63.68
2022-08-09T03:21:39.737Z,64.01
2022-08-09T03:24:42.787Z,63.64
2022-08-09T03:27:44.744Z,61.59
2022-08-09T03:30:36.697Z,61.99
2022-08-09T03:33:20.330Z,61.61
2022-08-09T03:36:12.677Z,60.70
2022-08-09T03:38:58.616Z,62.52
2022-08-09T03:41:48.747Z,62.71
2022-08-09T03:44:38.449Z,62.29
2022-08-09T03:47:39.832Z,62.58
2022-08-09T03:50:31.754Z,63.24
2022-08-09T03:53:16.335Z,61.29
2022-08-09T03:56:09.205Z,60.17
2022-08-09T03:58:51.751Z,60.26
2022-08-09T04:01:44.186Z,55.49
2022-08-09T04:04:36.080Z,57.77
2022-08-09T04:07:47.010Z,59.00
2022-08-09T04:10:30.491Z,56.55
2022-08-09T04:13:20.829Z,59.34
2022-08-09T04:16:21.774Z,57.42
2022-08-09T04:19:11.153Z,55.95
2022-08-09T04:22:04.053Z,59.89
2022-08-09T04:25:01.396Z,59.70
2022-08-09T04:27:49.369Z,58.44
2022-08-09T04:30:32.783Z,57.16
2022-08-09T04:33:23.627Z,58.55
2022-08-09T04:36:19.353Z,59.13
2022-08-09T04:39:03.340Z,60.64
2022-08-09T04:41:45.470Z,58.18
2022-08-09T04:44:34.082Z,58.45
2022-08-09T04:47:45.133Z,55.93
2022-08-09T04:50:37.866Z,59.00
2022-08-09T04:53:20.448Z,58.27
2022-08-09T04:56:11.274Z,55.40
2022-08-09T04:58:53.347Z,53.31
2022-08-09T05:01:45.089Z,53.31
2022-08-09T05:04:34.305Z,54.89
2022-08-09T05:07:23.450Z,55.51
2022-08-09T05:10:06.740Z,56.33
2022-08-09T05:12:56.150Z,59.42
2022-08-09T05:15:48.121Z,55.18
2022-08-09T05:18:50.627Z,53.99
2022-08-09T05:21:47.127Z,51.83
2022-08-09T05:24:44.254Z,53.04
2022-08-09T05:27:30.354Z,50.69
2022-08-09T05:30:20.303Z,53.06
2022-08-09T05:33:02.751Z,54.00
2022-08-09T05:35:51.300Z,52.65
2022-08-09T05:38:33.498Z,52.75
2022-08-09T05:41:28.281Z,50.45
2022-08-09T05:44:10.565Z,52.02
2022-08-09T05:47:01.168Z,51.31
2022-08-09T05:50:24.209Z,50.39
2022-08-09T05:53:02.279Z,49.02
2022-08-09T05:55:51.018Z,48.56
2022-08-09T05:58:41.681Z,51.35
2022-08-09T06:01:24.282Z,52.90
2022-08-09T06:04:13.281Z,52.54
2022-08-09T06:06:56.035Z,53.99
2022-08-09T06:10:01.755Z,53.40
2022-08-09T06:12:45.083Z,51.69
2022-08-09T06:15:47.131Z,52.99
2022-08-09T06:18:31.340Z,51.02
2022-08-09T06:21:20.138Z,53.51
2022-08-09T06:24:02.812Z,51.98
2022-08-09T06:26:51.687Z,53.51
2022-08-09T06:29:34.430Z,55.62
2022-08-09T06:32:59.762Z,52.30
2022-08-09T06:35:57.776Z,49.13
2022-08-09T06:38:50.193Z,48.81
2022-08-09T06:42:07.831Z,49.98
2022-08-09T06:44:41.192Z,51.55
2022-08-09T06:47:25.701Z,52.59
2022-08-09T06:50:32.136Z,52.03
2022-08-09T06:53:20.332Z,52.35
2022-08-09T06:56:03.387Z,52.12
2022-08-09T07:00:49.820Z,53.35
2022-08-09T07:01:59.604Z,54.63
2022-08-09T07:04:46.653Z,54.30
2022-08-09T07:08:00.632Z,54.91
2022-08-09T07:10:37.279Z,52.18
2022-08-09T07:13:29.552Z,52.70
2022-08-09T07:16:43.424Z,51.93
2022-08-09T07:19:23.446Z,54.20
2022-08-09T07:22:05.654Z,57.34
2022-08-09T07:24:55.042Z,53.67
2022-08-09T07:27:42.434Z,51.74
2022-08-09T07:30:42.290Z,53.12
2022-08-09T07:33:52.574Z,49.34
2022-08-09T07:36:35.020Z,51.49
2022-08-09T07:39:40.842Z,52.98
2022-08-09T07:42:32.469Z,54.38
2022-08-09T07:45:22.762Z,51.91
2022-08-09T07:48:36.066Z,54.60
2022-08-09T07:52:05.844Z,52.88
2022-08-09T07:54:35.533Z,48.74
2022-08-09T07:57:33.717Z,53.19
2022-08-09T08:00:37.125Z,49.08
2022-08-09T08:03:45.435Z,49.71
2022-08-09T08:06:31.973Z,53.05
2022-08-09T08:09:38.664Z,53.79
2022-08-09T08:12:31.058Z,55.55
2022-08-09T08:15:24.322Z,55.82
2022-08-09T08:18:14.327Z,55.31
2022-08-09T08:21:03.155Z,52.63
2022-08-09T08:23:45.288Z,53.93
2022-08-09T08:26:55.865Z,63.40
2022-08-09T08:29:39.546Z,64.22
2022-08-09T08:32:34.164Z,64.23
2022-08-09T08:35:18.170Z,64.93
2022-08-09T08:38:11.470Z,61.50
2022-08-09T08:40:53.947Z,60.18
2022-08-09T08:43:42.159Z,60.64
2022-08-09T08:46:33.387Z,59.41
2022-08-09T08:49:38.711Z,59.82
2022-08-09T08:52:59.337Z,58.19
2022-08-09T08:55:52.647Z,58.84
2022-08-09T08:58:36.099Z,60.40
2022-08-09T09:01:45.027Z,61.44
2022-08-09T09:04:47.741Z,62.02
2022-08-09T09:07:42.838Z,60.38
2022-08-09T09:10:35.113Z,60.53
2022-08-09T09:13:42.081Z,61.25
2022-08-09T09:16:29.919Z,63.78
2022-08-09T09:19:41.481Z,63.06
2022-08-09T09:22:28.822Z,63.53
2022-08-09T09:26:03.468Z,61.72
2022-08-09T09:28:21.270Z,61.90
2022-08-09T09:32:03.931Z,61.70
2022-08-09T09:34:32.678Z,61.87
2022-08-09T09:37:37.142Z,60.06
2022-08-09T09:40:22.568Z,60.80
2022-08-09T09:43:14.414Z,59.07
2022-08-09T09:50:07.314Z,59.38
2022-08-09T09:52:37.716Z,59.83
2022-08-09T09:55:31.218Z,59.37
2022-08-09T09:58:19.597Z,59.09
2022-08-09T10:01:31.401Z,59.67
2022-08-09T10:04:22.820Z,60.94
2022-08-09T10:07:35.414Z,56.46
2022-08-09T10:10:44.431Z,60.26
2022-08-09T10:13:43.244Z,60.56
2022-08-09T10:16:56.998Z,58.78
2022-08-09T10:19:45.862Z,60.40
2022-08-09T10:22:45.720Z,60.36
2022-08-09T10:25:34.901Z,59.49
2022-08-09T10:28:48.817Z,57.16
2022-08-09T10:35:05.164Z,57.66
2022-08-09T10:37:52.839Z,57.04
2022-08-09T10:40:50.110Z,58.25
2022-08-09T10:43:36.136Z,53.85
2022-08-09T10:47:20.552Z,58.16
2022-08-09T10:50:33.438Z,57.05
2022-08-09T10:53:56.163Z,56.98
2022-08-09T10:56:40.727Z,59.29
2022-08-09T10:59:31.774Z,58.82
2022-08-09T11:03:13.787Z,58.88
2022-08-09T11:06:33.406Z,58.23
2022-08-09T11:09:34.951Z,59.55
2022-08-09T11:12:29.684Z,58.56
2022-08-09T11:15:50.601Z,58.54
2022-08-09T11:18:53.408Z,60.44
2022-08-09T11:22:18.808Z,60.49
2022-08-09T11:25:44.976Z,61.99
2022-08-09T11:28:56.227Z,60.75
2022-08-09T11:31:55.065Z,60.66
2022-08-09T11:34:51.595Z,60.74
2022-08-09T11:37:41.514Z,61.58
2022-08-09T11:40:43.408Z,60.39
2022-08-09T11:43:32.088Z,60.53
2022-08-09T11:46:32.887Z,61.20
2022-08-09T11:49:17.020Z,59.83
2022-08-09T11:53:03.757Z,58.55
2022-08-09T11:55:53.941Z,59.39
2022-08-09T11:59:04.150Z,60.00
2022-08-09T12:02:16.415Z,60.29
2022-08-09T12:04:58.944Z,59.74
2022-08-09T12:07:42.864Z,61.10
2022-08-09T12:10:39.519Z,59.68
2022-08-09T12:14:10.259Z,60.04
2022-08-09T12:16:53.414Z,58.80
2022-08-09T12:19:46.164Z,61.43
2022-08-09T12:22:32.720Z,62.85
2022-08-09T12:25:37.649Z,62.41
2022-08-09T12:29:15.615Z,63.74
2022-08-09T12:32:01.881Z,62.17
2022-08-09T12:34:50.410Z,62.92
2022-08-09T12:37:49.735Z,59.59
2022-08-09T12:40:40.301Z,62.54
2022-08-09T12:44:05.817Z,63.51
2022-08-09T12:46:36.062Z,60.87
2022-08-09T12:49:25.301Z,62.34
2022-08-09T12:52:22.166Z,63.00
2022-08-09T12:56:14.538Z,63.90
2022-08-09T12:58:43.175Z,65.40
2022-08-09T13:01:33.383Z,64.20
2022-08-09T13:04:38.202Z,64.71
2022-08-09T13:07:28.580Z,63.16
2022-08-09T13:10:34.896Z,64.23
2022-08-09T13:13:28.140Z,64.47
2022-08-09T13:16:28.184Z,64.73
2022-08-09T13:19:13.905Z,64.69
2022-08-09T13:22:37.765Z,63.57
2022-08-09T13:25:07.659Z,61.94
2022-08-09T13:27:57.425Z,60.62
2022-08-09T13:32:14.143Z,59.85
2022-08-09T13:33:54.954Z,59.63
2022-08-09T13:36:43.618Z,59.19
2022-08-09T13:41:31.191Z,59.65
2022-08-09T13:42:43.436Z,60.68
2022-08-09T13:45:32.118Z,61.55
2022-08-09T13:48:37.169Z,61.93
2022-08-09T13:51:27.147Z,61.43
2022-08-09T13:54:22.032Z,62.92
2022-08-09T13:57:36.441Z,63.29
2022-08-09T14:00:29.030Z,64.89
2022-08-09T14:04:02.272Z,64.59
2022-08-09T14:06:26.448Z,64.98
2022-08-09T14:09:08.888Z,64.90
2022-08-09T14:12:00.387Z,63.97
2022-08-09T14:14:53.831Z,64.94
2022-08-09T14:18:06.752Z,64.79
2022-08-09T14:20:48.936Z,64.88
2022-08-09T14:23:46.877Z,63.28
2022-08-09T14:26:45.429Z,63.25
2022-08-09T14:30:34.904Z,65.10
2022-08-09T14:32:43.310Z,65.98
2022-08-09T14:35:25.643Z,64.88
2022-08-09T14:38:34.137Z,65.86
2022-08-09T14:41:39.782Z,64.50
2022-08-09T14:44:32.431Z,62.14
2022-08-09T14:47:45.373Z,65.87
2022-08-09T14:50:28.708Z,65.35
2022-08-09T14:53:21.430Z,67.19
2022-08-09T14:56:21.750Z,64.46
2022-08-09T14:59:15.394Z,65.03
2022-08-09T15:02:04.179Z,65.96
2022-08-09T15:05:03.037Z,65.94
2022-08-09T15:07:56.895Z,67.75
2022-08-09T15:10:42.363Z,66.26
2022-08-09T15:13:48.030Z,66.46
2022-08-09T15:16:33.470Z,66.26
2022-08-09T15:19:26.080Z,65.93
2022-08-09T15:22:08.449Z,68.55
2022-08-09T15:24:58.384Z,66.92
2022-08-09T15:27:55.090Z,65.95
2022-08-09T15:31:00.839Z,68.46
2022-08-09T15:34:17.599Z,67.47
2022-08-09T15:36:53.538Z,66.70
2022-08-09T15:39:53.135Z,67.05
2022-08-09T15:42:43.390Z,68.24
2022-08-09T15:45:29.573Z,68.83
2022-08-09T15:48:29.061Z,68.62
2022-08-09T15:52:00.770Z,68.67
2022-08-09T15:54:33.475Z,68.69
2022-08-09T15:57:44.402Z,69.38
2022-08-09T16:00:33.895Z,68.74
2022-08-09T16:03:29.570Z,68.16
2022-08-09T16:06:32.331Z,69.36
2022-08-09T16:09:32.404Z,69.00
2022-08-09T16:12:36.969Z,69.03
2022-08-09T16:16:04.603Z,68.94
2022-08-09T16:18:25.591Z,69.42
2022-08-09T16:21:17.390Z,68.81
2022-08-09T16:24:29.767Z,68.62
2022-08-09T16:27:16.475Z,69.36
2022-08-09T16:30:06.450Z,68.75
2022-08-09T16:33:07.049Z,68.91
2022-08-09T16:36:01.884Z,68.62
2022-08-09T16:38:51.740Z,68.40
2022-08-09T16:42:02.650Z,68.37
2022-08-09T16:44:45.417Z,69.52
2022-08-09T16:48:38.090Z,70.22
2022-08-09T16:50:39.839Z,69.60
2022-08-09T16:53:33.834Z,69.71
2022-08-09T16:56:16.600Z,69.54
2022-08-09T16:59:10.394Z,68.96
2022-08-09T17:01:53.003Z,70.43
2022-08-09T17:04:42.057Z,69.23
2022-08-09T17:08:43.877Z,70.75
2022-08-09T17:10:33.414Z,70.12
2022-08-09T17:13:22.844Z,70.35
2022-08-09T17:16:05.180Z,70.00
2022-08-09T17:18:54.133Z,69.19
2022-08-09T17:21:36.687Z,70.12
2022-08-09T17:24:30.810Z,70.03
2022-08-09T17:27:15.211Z,69.96
2022-08-09T17:30:04.656Z,70.02
2022-08-09T17:32:48.664Z,69.85
2022-08-09T17:35:41.186Z,70.73
2022-08-09T17:38:33.968Z,70.12
2022-08-09T17:41:38.852Z,70.74
2022-08-09T17:44:39.103Z,69.67
2022-08-09T17:47:30.158Z,70.24
2022-08-09T17:50:24.973Z,71.40
2022-08-09T17:53:22.563Z,69.75
2022-08-09T17:56:09.368Z,70.93
2022-08-09T17:59:09.168Z,71.25
2022-08-09T18:02:11.717Z,69.50
2022-08-09T18:04:58.586Z,69.24
2022-08-09T18:07:48.938Z,70.38
2022-08-09T18:10:32.687Z,70.22
2022-08-09T18:13:43.667Z,69.12
2022-08-09T18:16:30.389Z,70.09
2022-08-09T18:20:55.556Z,69.54
2022-08-09T18:22:28.172Z,70.54
2022-08-09T18:25:16.398Z,70.36
2022-08-09T18:28:21.405Z,70.70
2022-08-09T18:31:24.903Z,70.52
2022-08-09T18:34:18.479Z,70.93
2022-08-09T18:37:05.944Z,68.31
2022-08-09T18:39:59.452Z,69.28
2022-08-09T18:42:48.141Z,69.41
2022-08-09T18:46:49.929Z,69.74
2022-08-09T18:48:42.361Z,69.39
2022-08-09T18:51:37.951Z,69.91
2022-08-09T18:54:29.565Z,69.62
2022-08-09T18:57:12.793Z,69.89
2022-08-09T19:00:09.393Z,69.94
2022-08-09T19:03:00.044Z,70.09
2022-08-09T19:06:03.546Z,70.17
2022-08-09T19:08:55.262Z,70.63
2022-08-09T19:11:45.142Z,70.44
2022-08-09T19:14:29.483Z,70.80
2022-08-09T19:17:18.127Z,71.03
2022-08-09T19:20:03.255Z,71.61
2022-08-09T19:22:54.556Z,71.09
2022-08-09T19:25:41.936Z,71.10
2022-08-09T19:28:47.098Z,71.09
2022-08-09T19:31:43.965Z,71.51
2022-08-09T19:34:28.433Z,71.38
2022-08-09T19:37:17.814Z,71.47
2022-08-09T19:40:05.762Z,71.98
2022-08-09T19:42:54.138Z,71.47
2022-08-09T19:45:40.332Z,71.60
2022-08-09T19:49:01.018Z,71.09
2022-08-09T19:51:33.643Z,71.37
2022-08-09T19:54:26.162Z,72.05
2022-08-09T19:57:09.351Z,71.85
2022-08-09T20:00:07.344Z,71.88
2022-08-09T20:04:12.141Z,72.10
2022-08-09T20:05:58.629Z,72.09
2022-08-09T20:08:45.416Z,72.19
2022-08-09T20:11:45.395Z,72.38
2022-08-09T20:14:43.851Z,72.40
2022-08-09T20:17:41.574Z,72.82
2022-08-09T20:20:30.778Z,72.55
2022-08-09T20:23:19.396Z,72.53
2022-08-09T20:26:03.804Z,72.17
2022-08-09T20:28:55.409Z,72.33
2022-08-09T20:32:16.797Z,72.33
2022-08-09T20:34:46.160Z,72.21
2022-08-09T20:38:18.415Z,72.58
2022-08-09T20:40:37.352Z,73.00
2022-08-09T20:43:24.613Z,73.05
2022-08-09T20:46:15.469Z,72.92
2022-08-09T20:49:16.748Z,72.88
2022-08-09T20:52:05.400Z,72.53
2022-08-09T20:54:52.519Z,72.96
2022-08-09T20:58:05.259Z,73.02
2022-08-09T21:01:14.042Z,73.01
2022-08-09T21:05:48.461Z,73.30
2022-08-09T21:07:12.429Z,73.71
2022-08-09T21:10:02.653Z,73.75
2022-08-09T21:15:39.691Z,73.93
2022-08-09T21:20:02.212Z,73.88
2022-08-09T21:21:53.072Z,74.13
2022-08-09T21:25:07.252Z,74.15
2022-08-09T21:27:52.609Z,74.02
2022-08-09T21:30:42.161Z,74.18
2022-08-09T21:33:24.540Z,73.75
2022-08-09T21:36:28.173Z,74.27
2022-08-09T21:39:22.052Z,73.98
2022-08-09T21:42:18.126Z,74.23
2022-08-09T21:45:17.456Z,73.81
2022-08-09T21:48:00.175Z,74.18
2022-08-09T21:50:51.528Z,74.42
2022-08-09T21:53:40.912Z,74.21
2022-08-09T21:56:33.848Z,74.33
2022-08-09T21:59:43.026Z,73.59
2022-08-09T22:02:40.237Z,73.50
2022-08-09T22:05:35.692Z,73.29
2022-08-09T22:08:24.849Z,73.13
2022-08-09T22:12:09.548Z,73.38
2022-08-09T22:14:15.647Z,73.01
2022-08-09T22:17:04.167Z,73.10
2022-08-09T22:19:59.103Z,73.63
2022-08-09T22:22:49.401Z,73.78
2022-08-09T22:26:07.871Z,74.17
2022-08-09T22:28:43.643Z,73.79
2022-08-09T22:31:50.235Z,73.98
2022-08-09T22:34:41.129Z,73.83
2022-08-09T22:37:40.001Z,73.28
2022-08-09T22:40:22.586Z,73.43
2022-08-09T22:43:16.131Z,73.25
2022-08-09T22:48:11.848Z,73.21
2022-08-09T22:49:17.142Z,73.99
2022-08-09T22:51:59.109Z,73.91
2022-08-09T22:54:49.487Z,73.59
2022-08-09T22:57:35.464Z,74.19
2022-08-09T23:00:25.120Z,74.07
2022-08-09T23:03:17.427Z,74.39
2022-08-09T23:06:32.504Z,74.22
2022-08-09T23:09:18.827Z,74.21
2022-08-09T23:12:07.381Z,74.57
2022-08-09T23:14:55.662Z,74.16
2022-08-09T23:17:38.372Z,75.05
2022-08-09T23:20:27.369Z,74.63
2022-08-09T23:23:09.318Z,74.88
2022-08-09T23:25:58.160Z,74.84
2022-08-09T23:28:48.131Z,74.57
2022-08-09T23:31:37.364Z,74.29
2022-08-09T23:34:19.695Z,74.71
2022-08-09T23:37:08.401Z,74.65
2022-08-09T23:39:50.427Z,74.44
2022-08-09T23:42:39.397Z,74.57
2022-08-09T23:45:37.792Z,74.90
2022-08-09T23:48:26.305Z,75.39
2022-08-09T23:51:08.116Z,75.09
2022-08-09T23:54:02.185Z,75.31
2022-08-09T23:56:54.886Z,75.36
